Aviation Digital Data Service (ADDS)

Output produced by METARs form (0428 UTC 24 January 2019)
found at http://www.aviationweather.gov/metar/data/
 
Forecast for: EFIV (IVALO , FI)
Text: TAF EFIV 240224Z 2403/2412 29005KT 9999 SCT010
Forecast period: 0300 to 1200 UTC 24 January 2019
Forecast type: FROM: standard forecast or significant change
Winds: from the WNW (290 degrees) at 6 MPH (5 knots; 2.6 m/s)
Visibility: 6 or more miles 10+ km)
Ceiling: at least 12,000 feet AGL
Clouds: scattered clouds at 1000 feet AGL
Weather: no significant weather forecast for this period
Text: TEMPO 2403/2412 6000 -SHSN BKN007
Forecast period: 0300 to 1200 UTC 24 January 2019
Forecast type: TEMPORARY: The following changes expected for less than half the time period
Visibility: 4 miles (6 km)
Ceiling: 700 feet AGL
Clouds: broken clouds at 700 feet AGL
Weather: -SHSN  (light snow showers)